Commercial Point, Ohio
Current Conditions -  °F | °C
As of 2:55 PM on Friday 24 Oct 2014 (Local Time) from KLCK Reporting Station
Clear Clear  
Wind Chill: 62°   Ceiling: Unl
Heat Index: 62°   Visibility: 10mi
Dew Point: 41°   Wind: 0mph
Humidity: 45%   Direction: NA
Pressure: 30.05"   Gusts: NA
Location:  39.77°N, 83.06°W
Report Text: KLCK 241855Z AUTO 00000KT 10SM CLR 17/05 A3005 RMK AO2 T01680049
Loading
Personal Weather Stations






























Interactive Weather Map
Tropical Storm Tracking
New forecast layout! Learn more

10-Day Weather Forecast

Advertisements
Track Severe Weather on mobile